<?xml version="1.0" encoding="UTF-8" standalone="no" ?>
<gpx xmlns="http://www.topografix.com/GPX/1/1" xmlns:xsi="http://www.w3.org/2001/XMLSchema-instance" xsi:schemaLocation="http://www.topografix.com/GPX/1/1 http://www.topografix.com/GPX/1/1/gpx.xsd" version="1.1" creator="VisuGPX - https://www.visugpx.com">
  <metadata>
    <name>Essai d'impression</name>
    <desc><![CDATA[Essai d'utilisation et d'impression d'un fichier GPX]]></desc>
  </metadata>
  <trk>
    <name><![CDATA[8314358-Essai 1]]></name>
    <trkseg>
      <trkpt lat="50.4189" lon="4.21915">
        <ele>124</ele>
        <time>2018-06-12T20:16:13Z</time>
      </trkpt>
      <trkpt lat="50.4191" lon="4.21924">
        <ele>123</ele>
        <time>2018-06-12T20:17:13Z</time>
      </trkpt>
      <trkpt lat="50.42001" lon="4.2194">
        <ele>122</ele>
        <time>2018-06-12T20:18:13Z</time>
      </trkpt>
      <trkpt lat="50.42019" lon="4.21946">
        <ele>122</ele>
        <time>2018-06-12T20:19:13Z</time>
      </trkpt>
      <trkpt lat="50.42038" lon="4.21965">
        <ele>122</ele>
        <time>2018-06-12T20:20:13Z</time>
      </trkpt>
      <trkpt lat="50.42208" lon="4.22176">
        <ele>117</ele>
        <time>2018-06-12T20:21:13Z</time>
      </trkpt>
      <trkpt lat="50.42193" lon="4.2221">
        <ele>119</ele>
        <time>2018-06-12T20:22:13Z</time>
      </trkpt>
      <trkpt lat="50.42175" lon="4.22247">
        <ele>121</ele>
        <time>2018-06-12T20:23:13Z</time>
      </trkpt>
      <trkpt lat="50.4216" lon="4.22271">
        <ele>122</ele>
        <time>2018-06-12T20:24:13Z</time>
      </trkpt>
      <trkpt lat="50.42142" lon="4.2229">
        <ele>124</ele>
        <time>2018-06-12T20:25:13Z</time>
      </trkpt>
      <trkpt lat="50.42057" lon="4.22355">
        <ele>132</ele>
        <time>2018-06-12T20:26:13Z</time>
      </trkpt>
      <trkpt lat="50.42023" lon="4.22385">
        <ele>135</ele>
        <time>2018-06-12T20:27:13Z</time>
      </trkpt>
      <trkpt lat="50.42027" lon="4.22427">
        <ele>136</ele>
        <time>2018-06-12T20:28:13Z</time>
      </trkpt>
      <trkpt lat="50.42035" lon="4.22462">
        <ele>136</ele>
        <time>2018-06-12T20:29:13Z</time>
      </trkpt>
      <trkpt lat="50.4205" lon="4.22515">
        <ele>136</ele>
        <time>2018-06-12T20:30:13Z</time>
      </trkpt>
      <trkpt lat="50.42065" lon="4.22608">
        <ele>140</ele>
        <time>2018-06-12T20:31:13Z</time>
      </trkpt>
      <trkpt lat="50.42065" lon="4.22608">
        <ele>140</ele>
        <time>2018-06-12T20:32:13Z</time>
      </trkpt>
      <trkpt lat="50.42067" lon="4.22616">
        <ele>140</ele>
        <time>2018-06-12T20:33:13Z</time>
      </trkpt>
      <trkpt lat="50.42015" lon="4.22679">
        <ele>143</ele>
        <time>2018-06-12T20:34:13Z</time>
      </trkpt>
      <trkpt lat="50.41993" lon="4.2271">
        <ele>144</ele>
        <time>2018-06-12T20:35:13Z</time>
      </trkpt>
      <trkpt lat="50.41955" lon="4.22747">
        <ele>146</ele>
        <time>2018-06-12T20:36:13Z</time>
      </trkpt>
      <trkpt lat="50.41957" lon="4.22763">
        <ele>146</ele>
        <time>2018-06-12T20:37:13Z</time>
      </trkpt>
      <trkpt lat="50.41927" lon="4.22895">
        <ele>153</ele>
        <time>2018-06-12T20:38:13Z</time>
      </trkpt>
      <trkpt lat="50.41904" lon="4.22988">
        <ele>160</ele>
        <time>2018-06-12T20:39:13Z</time>
      </trkpt>
      <trkpt lat="50.419" lon="4.2301">
        <ele>161</ele>
        <time>2018-06-12T20:40:13Z</time>
      </trkpt>
      <trkpt lat="50.41917" lon="4.23023">
        <ele>160</ele>
        <time>2018-06-12T20:41:13Z</time>
      </trkpt>
      <trkpt lat="50.41925" lon="4.23037">
        <ele>160</ele>
        <time>2018-06-12T20:42:13Z</time>
      </trkpt>
      <trkpt lat="50.41934" lon="4.23074">
        <ele>160</ele>
        <time>2018-06-12T20:43:13Z</time>
      </trkpt>
      <trkpt lat="50.41938" lon="4.23083">
        <ele>160</ele>
        <time>2018-06-12T20:44:13Z</time>
      </trkpt>
      <trkpt lat="50.41946" lon="4.23083">
        <ele>160</ele>
        <time>2018-06-12T20:45:13Z</time>
      </trkpt>
      <trkpt lat="50.41971" lon="4.2307">
        <ele>157</ele>
        <time>2018-06-12T20:46:13Z</time>
      </trkpt>
      <trkpt lat="50.41986" lon="4.23067">
        <ele>156</ele>
        <time>2018-06-12T20:47:13Z</time>
      </trkpt>
      <trkpt lat="50.41999" lon="4.23061">
        <ele>155</ele>
        <time>2018-06-12T20:48:13Z</time>
      </trkpt>
      <trkpt lat="50.42058" lon="4.23053">
        <ele>156</ele>
        <time>2018-06-12T20:49:13Z</time>
      </trkpt>
      <trkpt lat="50.42104" lon="4.23039">
        <ele>156</ele>
        <time>2018-06-12T20:50:13Z</time>
      </trkpt>
      <trkpt lat="50.42115" lon="4.23034">
        <ele>155</ele>
        <time>2018-06-12T20:51:13Z</time>
      </trkpt>
      <trkpt lat="50.42153" lon="4.23011">
        <ele>155</ele>
        <time>2018-06-12T20:52:13Z</time>
      </trkpt>
      <trkpt lat="50.42168" lon="4.23011">
        <ele>156</ele>
        <time>2018-06-12T20:53:13Z</time>
      </trkpt>
      <trkpt lat="50.42178" lon="4.2302">
        <ele>158</ele>
        <time>2018-06-12T20:54:13Z</time>
      </trkpt>
      <trkpt lat="50.42191" lon="4.2304">
        <ele>160</ele>
        <time>2018-06-12T20:55:13Z</time>
      </trkpt>
      <trkpt lat="50.42182" lon="4.23063">
        <ele>161</ele>
        <time>2018-06-12T20:56:13Z</time>
      </trkpt>
      <trkpt lat="50.42178" lon="4.2309">
        <ele>162</ele>
        <time>2018-06-12T20:57:13Z</time>
      </trkpt>
      <trkpt lat="50.42179" lon="4.23116">
        <ele>164</ele>
        <time>2018-06-12T20:58:13Z</time>
      </trkpt>
      <trkpt lat="50.42204" lon="4.23249">
        <ele>174</ele>
        <time>2018-06-12T20:59:13Z</time>
      </trkpt>
      <trkpt lat="50.42213" lon="4.23286">
        <ele>175</ele>
        <time>2018-06-12T21:00:13Z</time>
      </trkpt>
      <trkpt lat="50.42213" lon="4.23286">
        <ele>175</ele>
        <time>2018-06-12T21:01:13Z</time>
      </trkpt>
      <trkpt lat="50.42215" lon="4.23295">
        <ele>175</ele>
        <time>2018-06-12T21:02:13Z</time>
      </trkpt>
      <trkpt lat="50.42225" lon="4.23292">
        <ele>174</ele>
        <time>2018-06-12T21:03:13Z</time>
      </trkpt>
      <trkpt lat="50.4228" lon="4.23299">
        <ele>173</ele>
        <time>2018-06-12T21:04:13Z</time>
      </trkpt>
      <trkpt lat="50.4235" lon="4.23318">
        <ele>173</ele>
        <time>2018-06-12T21:05:13Z</time>
      </trkpt>
      <trkpt lat="50.42495" lon="4.23363">
        <ele>171</ele>
        <time>2018-06-12T21:06:13Z</time>
      </trkpt>
      <trkpt lat="50.42616" lon="4.23367">
        <ele>169</ele>
        <time>2018-06-12T21:07:13Z</time>
      </trkpt>
      <trkpt lat="50.42656" lon="4.23338">
        <ele>167</ele>
        <time>2018-06-12T21:08:13Z</time>
      </trkpt>
      <trkpt lat="50.42675" lon="4.23328">
        <ele>167</ele>
        <time>2018-06-12T21:09:13Z</time>
      </trkpt>
      <trkpt lat="50.4269" lon="4.23327">
        <ele>166</ele>
        <time>2018-06-12T21:10:13Z</time>
      </trkpt>
      <trkpt lat="50.42713" lon="4.23331">
        <ele>166</ele>
        <time>2018-06-12T21:11:13Z</time>
      </trkpt>
      <trkpt lat="50.42729" lon="4.23317">
        <ele>165</ele>
        <time>2018-06-12T21:12:13Z</time>
      </trkpt>
      <trkpt lat="50.42812" lon="4.23268">
        <ele>161</ele>
        <time>2018-06-12T21:13:13Z</time>
      </trkpt>
      <trkpt lat="50.42843" lon="4.23259">
        <ele>160</ele>
        <time>2018-06-12T21:14:13Z</time>
      </trkpt>
      <trkpt lat="50.42904" lon="4.2328">
        <ele>160</ele>
        <time>2018-06-12T21:15:13Z</time>
      </trkpt>
      <trkpt lat="50.42907" lon="4.23298">
        <ele>161</ele>
        <time>2018-06-12T21:16:13Z</time>
      </trkpt>
      <trkpt lat="50.42912" lon="4.23316">
        <ele>163</ele>
        <time>2018-06-12T21:17:13Z</time>
      </trkpt>
      <trkpt lat="50.42923" lon="4.23341">
        <ele>165</ele>
        <time>2018-06-12T21:18:13Z</time>
      </trkpt>
      <trkpt lat="50.42921" lon="4.2335">
        <ele>165</ele>
        <time>2018-06-12T21:19:13Z</time>
      </trkpt>
      <trkpt lat="50.42923" lon="4.23358">
        <ele>166</ele>
        <time>2018-06-12T21:20:13Z</time>
      </trkpt>
      <trkpt lat="50.42923" lon="4.23358">
        <ele>166</ele>
        <time>2018-06-12T21:21:13Z</time>
      </trkpt>
      <trkpt lat="50.42929" lon="4.2336">
        <ele>166</ele>
        <time>2018-06-12T21:22:13Z</time>
      </trkpt>
      <trkpt lat="50.42933" lon="4.23357">
        <ele>166</ele>
        <time>2018-06-12T21:23:13Z</time>
      </trkpt>
      <trkpt lat="50.42934" lon="4.23347">
        <ele>165</ele>
        <time>2018-06-12T21:24:13Z</time>
      </trkpt>
      <trkpt lat="50.4293" lon="4.23339">
        <ele>164</ele>
        <time>2018-06-12T21:25:13Z</time>
      </trkpt>
      <trkpt lat="50.42923" lon="4.23341">
        <ele>165</ele>
        <time>2018-06-12T21:26:13Z</time>
      </trkpt>
      <trkpt lat="50.42912" lon="4.23316">
        <ele>163</ele>
        <time>2018-06-12T21:27:13Z</time>
      </trkpt>
      <trkpt lat="50.42907" lon="4.23298">
        <ele>161</ele>
        <time>2018-06-12T21:28:13Z</time>
      </trkpt>
      <trkpt lat="50.42904" lon="4.2328">
        <ele>160</ele>
        <time>2018-06-12T21:29:13Z</time>
      </trkpt>
      <trkpt lat="50.42909" lon="4.23266">
        <ele>159</ele>
        <time>2018-06-12T21:30:13Z</time>
      </trkpt>
      <trkpt lat="50.42917" lon="4.23203">
        <ele>154</ele>
        <time>2018-06-12T21:31:13Z</time>
      </trkpt>
      <trkpt lat="50.42922" lon="4.23182">
        <ele>153</ele>
        <time>2018-06-12T21:32:13Z</time>
      </trkpt>
      <trkpt lat="50.42928" lon="4.23174">
        <ele>152</ele>
        <time>2018-06-12T21:33:13Z</time>
      </trkpt>
      <trkpt lat="50.42991" lon="4.23123">
        <ele>148</ele>
        <time>2018-06-12T21:34:13Z</time>
      </trkpt>
      <trkpt lat="50.43006" lon="4.23078">
        <ele>146</ele>
        <time>2018-06-12T21:35:13Z</time>
      </trkpt>
      <trkpt lat="50.43017" lon="4.23032">
        <ele>143</ele>
        <time>2018-06-12T21:36:13Z</time>
      </trkpt>
      <trkpt lat="50.43" lon="4.22862">
        <ele>135</ele>
        <time>2018-06-12T21:37:13Z</time>
      </trkpt>
      <trkpt lat="50.42988" lon="4.22779">
        <ele>132</ele>
        <time>2018-06-12T21:38:13Z</time>
      </trkpt>
      <trkpt lat="50.4297" lon="4.22691">
        <ele>130</ele>
        <time>2018-06-12T21:39:13Z</time>
      </trkpt>
      <trkpt lat="50.42957" lon="4.22672">
        <ele>129</ele>
        <time>2018-06-12T21:40:13Z</time>
      </trkpt>
      <trkpt lat="50.42948" lon="4.22649">
        <ele>129</ele>
        <time>2018-06-12T21:41:13Z</time>
      </trkpt>
      <trkpt lat="50.42916" lon="4.22507">
        <ele>125</ele>
        <time>2018-06-12T21:42:13Z</time>
      </trkpt>
      <trkpt lat="50.42899" lon="4.22454">
        <ele>123</ele>
        <time>2018-06-12T21:43:13Z</time>
      </trkpt>
      <trkpt lat="50.42856" lon="4.22479">
        <ele>122</ele>
        <time>2018-06-12T21:44:13Z</time>
      </trkpt>
      <trkpt lat="50.42824" lon="4.22493">
        <ele>121</ele>
        <time>2018-06-12T21:45:13Z</time>
      </trkpt>
      <trkpt lat="50.42784" lon="4.22507">
        <ele>119</ele>
        <time>2018-06-12T21:46:13Z</time>
      </trkpt>
      <trkpt lat="50.42743" lon="4.22526">
        <ele>119</ele>
        <time>2018-06-12T21:47:13Z</time>
      </trkpt>
      <trkpt lat="50.42706" lon="4.2255">
        <ele>119</ele>
        <time>2018-06-12T21:48:13Z</time>
      </trkpt>
      <trkpt lat="50.42691" lon="4.22552">
        <ele>119</ele>
        <time>2018-06-12T21:49:13Z</time>
      </trkpt>
      <trkpt lat="50.42671" lon="4.22548">
        <ele>119</ele>
        <time>2018-06-12T21:50:13Z</time>
      </trkpt>
      <trkpt lat="50.4266" lon="4.22537">
        <ele>118</ele>
        <time>2018-06-12T21:51:13Z</time>
      </trkpt>
      <trkpt lat="50.42626" lon="4.22438">
        <ele>117</ele>
        <time>2018-06-12T21:52:13Z</time>
      </trkpt>
      <trkpt lat="50.42609" lon="4.22414">
        <ele>117</ele>
        <time>2018-06-12T21:53:13Z</time>
      </trkpt>
      <trkpt lat="50.4255" lon="4.22351">
        <ele>116</ele>
        <time>2018-06-12T21:54:13Z</time>
      </trkpt>
      <trkpt lat="50.42516" lon="4.2233">
        <ele>115</ele>
        <time>2018-06-12T21:55:13Z</time>
      </trkpt>
      <trkpt lat="50.42485" lon="4.22264">
        <ele>113</ele>
        <time>2018-06-12T21:56:13Z</time>
      </trkpt>
      <trkpt lat="50.42449" lon="4.22159">
        <ele>113</ele>
        <time>2018-06-12T21:57:13Z</time>
      </trkpt>
      <trkpt lat="50.42356" lon="4.22187">
        <ele>115</ele>
        <time>2018-06-12T21:58:13Z</time>
      </trkpt>
      <trkpt lat="50.42264" lon="4.22187">
        <ele>116</ele>
        <time>2018-06-12T21:59:13Z</time>
      </trkpt>
      <trkpt lat="50.42226" lon="4.22183">
        <ele>117</ele>
        <time>2018-06-12T22:00:13Z</time>
      </trkpt>
      <trkpt lat="50.42208" lon="4.22176">
        <ele>117</ele>
        <time>2018-06-12T22:01:13Z</time>
      </trkpt>
      <trkpt lat="50.42038" lon="4.21965">
        <ele>122</ele>
        <time>2018-06-12T22:02:13Z</time>
      </trkpt>
      <trkpt lat="50.42019" lon="4.21946">
        <ele>122</ele>
        <time>2018-06-12T22:03:13Z</time>
      </trkpt>
      <trkpt lat="50.42001" lon="4.2194">
        <ele>122</ele>
        <time>2018-06-12T22:04:13Z</time>
      </trkpt>
      <trkpt lat="50.4191" lon="4.21924">
        <ele>123</ele>
        <time>2018-06-12T22:05:13Z</time>
      </trkpt>
      <trkpt lat="50.4189" lon="4.21915">
        <ele>124</ele>
        <time>2018-06-12T22:06:13Z</time>
      </trkpt>
    </trkseg>
  </trk>
</gpx>